createdAt,value
2022-09-04T00:00:22.174Z,20.19
2022-09-04T00:02:48.549Z,20.17
2022-09-04T00:05:19.048Z,20.14
2022-09-04T00:07:41.287Z,20.11
2022-09-04T00:10:07.647Z,20.08
2022-09-04T00:12:34.041Z,20.07
2022-09-04T00:15:00.415Z,20.10
2022-09-04T00:17:26.820Z,20.09
2022-09-04T00:19:53.199Z,20.03
2022-09-04T00:22:19.680Z,19.95
2022-09-04T00:24:46.070Z,19.93
2022-09-04T00:27:12.443Z,19.89
2022-09-04T00:29:38.814Z,19.86
2022-09-04T00:32:05.180Z,19.88
2022-09-04T00:34:31.641Z,19.91
2022-09-04T00:36:58.009Z,19.92
2022-09-04T00:39:24.431Z,19.86
2022-09-04T00:41:50.761Z,19.71
2022-09-04T00:44:17.179Z,19.75
2022-09-04T00:46:43.611Z,19.74
2022-09-04T00:49:10.036Z,19.74
2022-09-04T00:51:36.474Z,19.71
2022-09-04T00:54:02.854Z,19.67
2022-09-04T00:56:29.218Z,19.65
2022-09-04T00:58:55.620Z,19.63
2022-09-04T01:01:22.152Z,19.61
2022-09-04T01:03:48.404Z,19.61
2022-09-04T01:06:14.745Z,19.55
2022-09-04T01:08:41.111Z,19.53
2022-09-04T01:11:07.480Z,19.54
2022-09-04T01:13:33.964Z,19.55
2022-09-04T01:16:00.417Z,19.51
2022-09-04T01:18:26.711Z,19.48
2022-09-04T01:20:53.170Z,19.45
2022-09-04T01:23:19.573Z,19.37
2022-09-04T01:25:45.958Z,19.33
2022-09-04T01:28:12.457Z,19.28
2022-09-04T01:30:38.840Z,19.30
2022-09-04T01:33:05.216Z,19.35
2022-09-04T01:35:31.624Z,19.33
2022-09-04T01:37:58.005Z,19.34
2022-09-04T01:40:35.197Z,19.28
2022-09-04T01:42:50.853Z,19.17
2022-09-04T01:45:17.289Z,19.08
2022-09-04T01:47:43.652Z,19.02
2022-09-04T01:50:10.023Z,18.92
2022-09-04T01:52:36.390Z,18.90
2022-09-04T01:55:02.749Z,18.89
2022-09-04T01:57:29.116Z,18.97
2022-09-04T01:59:55.486Z,19.07
2022-09-04T02:02:21.921Z,19.07
2022-09-04T02:04:48.333Z,19.12
2022-09-04T02:07:14.698Z,19.13
2022-09-04T02:09:41.106Z,19.13
2022-09-04T02:12:08.775Z,19.14
2022-09-04T02:14:33.922Z,19.10
2022-09-04T02:17:00.284Z,19.07
2022-09-04T02:19:26.726Z,19.04
2022-09-04T02:21:53.090Z,18.99
2022-09-04T02:24:19.496Z,18.99
2022-09-04T02:26:45.933Z,18.98
2022-09-04T02:29:12.295Z,18.96
2022-09-04T02:31:38.740Z,18.95
2022-09-04T02:34:05.140Z,18.92
2022-09-04T02:36:31.507Z,18.78
2022-09-04T02:38:57.996Z,18.79
2022-09-04T02:41:24.420Z,18.80
2022-09-04T02:43:50.789Z,18.82
2022-09-04T02:46:17.226Z,18.79
2022-09-04T02:48:43.584Z,18.74
2022-09-04T02:51:09.959Z,18.67
2022-09-04T02:53:36.363Z,18.66
2022-09-04T02:56:02.734Z,18.67
2022-09-04T02:58:29.154Z,18.69
2022-09-04T03:00:55.548Z,18.67
2022-09-04T03:03:21.907Z,18.64
2022-09-04T03:05:48.263Z,18.61
2022-09-04T03:08:14.655Z,18.64
2022-09-04T03:10:41.023Z,18.67
2022-09-04T03:13:07.444Z,18.65
2022-09-04T03:15:33.822Z,18.63
2022-09-04T03:18:00.185Z,18.63
2022-09-04T03:20:26.640Z,18.60
2022-09-04T03:22:53.076Z,18.58
2022-09-04T03:25:19.435Z,18.59
2022-09-04T03:27:45.840Z,18.57
2022-09-04T03:30:12.267Z,18.54
2022-09-04T03:32:38.703Z,18.51
2022-09-04T03:35:05.070Z,18.52
2022-09-04T03:37:31.468Z,18.51
2022-09-04T03:39:57.899Z,18.52
2022-09-04T03:42:24.201Z,18.57
2022-09-04T03:44:52.323Z,18.55
2022-09-04T03:47:17.095Z,18.50
2022-09-04T03:49:43.522Z,18.46
2022-09-04T03:52:09.891Z,18.47
2022-09-04T03:54:36.397Z,18.50
2022-09-04T03:57:02.779Z,18.50
2022-09-04T03:59:29.261Z,18.51
2022-09-04T04:01:55.665Z,18.53
2022-09-04T04:04:22.053Z,18.51
2022-09-04T04:06:48.417Z,18.47
2022-09-04T04:09:14.890Z,18.42
2022-09-04T04:11:43.436Z,18.42
2022-09-04T04:14:07.639Z,18.41
2022-09-04T04:16:34.097Z,18.43
2022-09-04T04:19:00.827Z,18.50
2022-09-04T04:21:27.253Z,18.54
2022-09-04T04:23:53.687Z,18.55
2022-09-04T04:26:20.125Z,18.52
2022-09-04T04:28:46.554Z,18.51
2022-09-04T04:31:13.080Z,18.50
2022-09-04T04:33:39.326Z,18.47
2022-09-04T04:36:05.702Z,18.47
2022-09-04T04:38:32.077Z,18.50
2022-09-04T04:40:58.518Z,18.50
2022-09-04T04:43:24.917Z,18.50
2022-09-04T04:45:51.281Z,18.49
2022-09-04T04:48:17.706Z,18.48
2022-09-04T04:50:44.070Z,18.52
2022-09-04T04:53:10.481Z,18.52
2022-09-04T04:55:36.847Z,18.49
2022-09-04T04:58:03.215Z,18.49
2022-09-04T05:00:29.580Z,18.48
2022-09-04T05:02:56.067Z,18.45
2022-09-04T05:05:22.367Z,18.44
2022-09-04T05:07:48.773Z,18.41
2022-09-04T05:10:15.174Z,18.41
2022-09-04T05:12:41.655Z,18.42
2022-09-04T05:15:08.009Z,18.43
2022-09-04T05:17:34.377Z,18.44
2022-09-04T05:20:00.743Z,18.44
2022-09-04T05:22:30.399Z,18.44
2022-09-04T05:24:54.060Z,18.49
2022-09-04T05:27:20.064Z,18.49
2022-09-04T05:29:46.446Z,18.50
2022-09-04T05:32:12.835Z,18.51
2022-09-04T05:34:39.194Z,18.52
2022-09-04T05:37:05.673Z,18.53
2022-09-04T05:39:32.018Z,18.56
2022-09-04T05:41:59.163Z,18.57
2022-09-04T05:44:24.734Z,18.59
2022-09-04T05:46:51.823Z,18.61
2022-09-04T05:49:17.516Z,18.61
2022-09-04T05:51:43.940Z,18.57
2022-09-04T05:54:10.299Z,18.58
2022-09-04T05:56:36.720Z,18.60
2022-09-04T05:59:03.150Z,18.64
2022-09-04T06:01:29.628Z,18.66
2022-09-04T06:03:55.944Z,18.68
2022-09-04T06:06:22.346Z,18.72
2022-09-04T06:08:48.728Z,18.78
2022-09-04T06:11:15.116Z,18.82
2022-09-04T06:13:41.546Z,18.82
2022-09-04T06:16:08.290Z,18.81
2022-09-04T06:18:34.600Z,18.82
2022-09-04T06:21:01.000Z,18.81
2022-09-04T06:23:27.434Z,18.73
2022-09-04T06:25:54.014Z,18.68
2022-09-04T06:28:20.433Z,18.67
2022-09-04T06:30:47.027Z,18.66
2022-09-04T06:33:13.411Z,18.64
2022-09-04T06:35:39.854Z,18.63
2022-09-04T06:38:06.278Z,18.59
2022-09-04T06:40:32.661Z,18.56
2022-09-04T06:42:59.098Z,18.65
2022-09-04T06:45:25.590Z,18.74
2022-09-04T06:47:51.983Z,18.79
2022-09-04T06:50:18.368Z,18.85
2022-09-04T06:52:44.737Z,18.93
2022-09-04T06:55:11.107Z,18.92
2022-09-04T06:57:37.531Z,18.96
2022-09-04T07:00:03.919Z,19.12
2022-09-04T07:02:30.339Z,19.32
2022-09-04T07:04:56.682Z,19.44
2022-09-04T07:07:23.062Z,19.75
2022-09-04T07:09:49.426Z,20.11
2022-09-04T07:12:15.816Z,20.43
2022-09-04T07:14:42.183Z,20.73
2022-09-04T07:17:08.601Z,20.93
2022-09-04T07:19:34.973Z,21.41
2022-09-04T07:22:01.332Z,22.01
2022-09-04T07:24:27.707Z,22.21
2022-09-04T07:26:54.066Z,22.41
2022-09-04T07:29:25.118Z,22.72
2022-09-04T07:31:46.902Z,23.19
2022-09-04T07:34:13.202Z,23.38
2022-09-04T07:36:39.627Z,23.65
2022-09-04T07:39:06.040Z,24.09
2022-09-04T07:41:32.405Z,24.62
2022-09-04T07:43:58.854Z,25.11
2022-09-04T07:46:25.316Z,25.43
2022-09-04T07:48:51.735Z,25.77
2022-09-04T07:51:18.109Z,26.08
2022-09-04T07:53:44.570Z,26.29
2022-09-04T07:56:11.016Z,26.54
2022-09-04T07:58:37.454Z,26.76
2022-09-04T08:01:03.892Z,26.94
2022-09-04T08:03:30.208Z,27.17
2022-09-04T08:05:56.575Z,27.34
2022-09-04T08:08:23.006Z,27.50
2022-09-04T08:10:49.310Z,27.64
2022-09-04T08:13:15.707Z,27.79
2022-09-04T08:15:42.877Z,27.85
2022-09-04T08:18:08.531Z,27.96
2022-09-04T08:20:34.874Z,28.11
2022-09-04T08:23:01.267Z,28.55
2022-09-04T08:25:27.666Z,28.73
2022-09-04T08:27:54.126Z,28.77
2022-09-04T08:30:20.566Z,28.91
2022-09-04T08:32:46.952Z,29.19
2022-09-04T08:35:13.333Z,29.28
2022-09-04T08:37:39.730Z,29.28
2022-09-04T08:40:06.138Z,29.53
2022-09-04T08:42:32.476Z,29.70
2022-09-04T08:44:58.960Z,29.72
2022-09-04T08:47:25.324Z,29.87
2022-09-04T08:49:51.733Z,29.98
2022-09-04T08:52:18.121Z,30.13
2022-09-04T08:54:44.484Z,29.90
2022-09-04T08:57:10.854Z,29.82
2022-09-04T08:59:37.233Z,30.04
2022-09-04T09:02:04.229Z,29.96
2022-09-04T09:04:30.620Z,30.24
2022-09-04T09:06:57.054Z,30.44
2022-09-04T09:09:23.494Z,30.63
2022-09-04T09:11:49.859Z,30.44
2022-09-04T09:14:16.254Z,30.07
2022-09-04T09:16:42.815Z,29.94
2022-09-04T09:19:09.114Z,30.27
2022-09-04T09:21:35.480Z,30.29
2022-09-04T09:24:01.901Z,30.05
2022-09-04T09:26:28.344Z,29.80
2022-09-04T09:28:55.023Z,29.79
2022-09-04T09:31:21.496Z,30.21
2022-09-04T09:33:47.766Z,30.43
2022-09-04T09:36:14.131Z,30.65
2022-09-04T09:38:40.531Z,30.88
2022-09-04T09:41:06.907Z,31.03
2022-09-04T09:43:33.344Z,31.10
2022-09-04T09:45:59.829Z,31.15
2022-09-04T09:48:26.215Z,31.35
2022-09-04T09:50:52.649Z,31.68
2022-09-04T09:53:19.106Z,31.98
2022-09-04T09:55:45.415Z,32.07
2022-09-04T09:58:11.794Z,31.79
2022-09-04T10:00:38.216Z,31.40
2022-09-04T10:03:04.575Z,31.27
2022-09-04T10:05:30.944Z,31.30
2022-09-04T10:07:57.321Z,31.30
2022-09-04T10:10:23.807Z,31.07
2022-09-04T10:12:50.190Z,31.35
2022-09-04T10:15:16.711Z,31.68
2022-09-04T10:17:43.109Z,31.88
2022-09-04T10:20:09.534Z,32.01
2022-09-04T10:22:35.932Z,32.14
2022-09-04T10:25:02.329Z,32.21
2022-09-04T10:27:28.738Z,32.14
2022-09-04T10:29:55.147Z,32.07
2022-09-04T10:32:21.527Z,31.63
2022-09-04T10:34:47.888Z,31.29
2022-09-04T10:37:14.275Z,31.01
2022-09-04T10:39:40.780Z,30.95
2022-09-04T10:42:07.051Z,31.29
2022-09-04T10:44:33.561Z,31.59
2022-09-04T10:46:59.928Z,31.76
2022-09-04T10:49:26.322Z,31.93
2022-09-04T10:51:52.751Z,32.08
2022-09-04T10:54:19.158Z,32.22
2022-09-04T10:56:45.629Z,32.28
2022-09-04T10:59:11.999Z,32.20
2022-09-04T11:01:38.438Z,32.37
2022-09-04T11:04:04.781Z,32.28
2022-09-04T11:06:31.163Z,32.27
2022-09-04T11:08:57.529Z,32.16
2022-09-04T11:11:24.018Z,32.18
2022-09-04T11:13:51.595Z,32.08
2022-09-04T11:16:16.931Z,32.08
2022-09-04T11:18:43.258Z,32.23
2022-09-04T11:21:09.611Z,32.38
2022-09-04T11:23:36.035Z,32.23
2022-09-04T11:26:02.413Z,32.03
2022-09-04T11:28:28.800Z,32.13
2022-09-04T11:30:55.271Z,32.16
2022-09-04T11:33:21.658Z,32.40
2022-09-04T11:35:48.146Z,32.17
2022-09-04T11:38:14.538Z,32.20
2022-09-04T11:40:40.926Z,32.35
2022-09-04T11:43:07.296Z,32.44
2022-09-04T11:45:33.814Z,32.47
2022-09-04T11:48:00.155Z,32.63
2022-09-04T11:50:26.643Z,32.61
2022-09-04T11:52:53.075Z,32.59
2022-09-04T11:55:19.435Z,32.82
2022-09-04T11:57:45.826Z,32.93
2022-09-04T12:00:12.210Z,32.98
2022-09-04T12:02:38.728Z,32.95
2022-09-04T12:05:05.157Z,32.78
2022-09-04T12:07:39.369Z,32.61
2022-09-04T12:09:57.952Z,32.63
2022-09-04T12:12:24.315Z,32.56
2022-09-04T12:14:50.678Z,32.34
2022-09-04T12:17:17.192Z,32.21
2022-09-04T12:19:43.575Z,31.92
2022-09-04T12:22:09.937Z,31.63
2022-09-04T12:24:36.334Z,31.43
2022-09-04T12:27:02.719Z,31.30
2022-09-04T12:29:29.081Z,31.34
2022-09-04T12:31:55.532Z,31.40
2022-09-04T12:34:21.843Z,31.44
2022-09-04T12:36:48.210Z,31.60
2022-09-04T12:39:14.581Z,31.52
2022-09-04T12:41:40.968Z,31.63
2022-09-04T12:44:07.374Z,31.43
2022-09-04T12:46:33.788Z,31.12
2022-09-04T12:49:00.184Z,30.89
2022-09-04T12:51:26.585Z,31.00
2022-09-04T12:53:53.160Z,31.17
2022-09-04T12:56:19.299Z,31.24
2022-09-04T12:58:45.732Z,31.29
2022-09-04T13:01:12.185Z,31.16
2022-09-04T13:03:38.504Z,30.64
2022-09-04T13:06:04.949Z,30.21
2022-09-04T13:08:31.464Z,30.16
2022-09-04T13:10:58.074Z,30.29
2022-09-04T13:13:25.134Z,30.31
2022-09-04T13:15:50.991Z,30.17
2022-09-04T13:18:17.198Z,30.23
2022-09-04T13:20:43.805Z,30.28
2022-09-04T13:23:11.106Z,30.43
2022-09-04T13:25:36.593Z,30.37
2022-09-04T13:28:02.975Z,30.37
2022-09-04T13:30:29.341Z,30.27
2022-09-04T13:32:55.741Z,30.15
2022-09-04T13:35:22.129Z,30.01
2022-09-04T13:37:48.494Z,29.95
2022-09-04T13:40:14.858Z,30.06
2022-09-04T13:42:42.606Z,30.10
2022-09-04T13:45:07.668Z,30.03
2022-09-04T13:47:34.045Z,30.04
2022-09-04T13:50:00.452Z,29.99
2022-09-04T13:52:26.818Z,30.00
2022-09-04T13:54:53.188Z,29.95
2022-09-04T13:57:19.565Z,29.94
2022-09-04T13:59:45.942Z,29.88
2022-09-04T14:02:12.294Z,29.88
2022-09-04T14:04:38.835Z,29.91
2022-09-04T14:07:05.189Z,29.84
2022-09-04T14:09:31.548Z,29.67
2022-09-04T14:11:57.925Z,29.62
2022-09-04T14:14:24.312Z,29.66
2022-09-04T14:16:50.819Z,29.70
2022-09-04T14:19:17.220Z,29.70
2022-09-04T14:21:43.596Z,29.59
2022-09-04T14:24:10.091Z,29.52
2022-09-04T14:26:36.478Z,29.42
2022-09-04T14:29:02.837Z,29.30
2022-09-04T14:31:29.329Z,29.20
2022-09-04T14:33:55.656Z,29.18
2022-09-04T14:36:22.024Z,29.09
2022-09-04T14:38:48.475Z,29.06
2022-09-04T14:41:14.846Z,28.99
2022-09-04T14:43:41.237Z,28.89
2022-09-04T14:46:07.669Z,28.91
2022-09-04T14:48:34.018Z,28.87
2022-09-04T14:51:00.383Z,28.86
2022-09-04T14:53:26.866Z,28.81
2022-09-04T14:55:53.249Z,28.78
2022-09-04T14:58:19.791Z,28.73
2022-09-04T15:00:46.002Z,28.72
2022-09-04T15:03:12.550Z,28.67
2022-09-04T15:05:38.886Z,28.67
2022-09-04T15:08:05.239Z,28.64
2022-09-04T15:10:31.693Z,28.47
2022-09-04T15:12:58.077Z,28.32
2022-09-04T15:15:24.440Z,28.26
2022-09-04T15:17:50.889Z,28.25
2022-09-04T15:20:17.323Z,28.23
2022-09-04T15:22:43.707Z,28.20
2022-09-04T15:25:10.108Z,28.02
2022-09-04T15:27:36.485Z,27.82
2022-09-04T15:30:02.849Z,27.66
2022-09-04T15:32:29.221Z,27.63
2022-09-04T15:34:55.610Z,27.61
2022-09-04T15:37:21.974Z,27.57
2022-09-04T15:39:48.408Z,27.51
2022-09-04T15:42:14.811Z,27.49
2022-09-04T15:44:41.246Z,27.49
2022-09-04T15:47:07.625Z,27.42
2022-09-04T15:49:33.996Z,27.32
2022-09-04T15:52:00.376Z,27.20
2022-09-04T15:54:26.740Z,27.09
2022-09-04T15:56:53.099Z,27.03
2022-09-04T15:59:19.474Z,26.94
2022-09-04T16:01:45.883Z,26.85
2022-09-04T16:04:12.228Z,26.77
2022-09-04T16:06:38.609Z,26.72
2022-09-04T16:09:04.996Z,26.70
2022-09-04T16:11:31.354Z,26.59
2022-09-04T16:13:58.405Z,26.49
2022-09-04T16:16:24.174Z,26.45
2022-09-04T16:18:50.500Z,26.38
2022-09-04T16:21:16.867Z,26.33
2022-09-04T16:23:43.249Z,26.35
2022-09-04T16:26:09.694Z,26.44
2022-09-04T16:28:36.085Z,26.40
2022-09-04T16:31:02.541Z,26.27
2022-09-04T16:33:28.835Z,26.15
2022-09-04T16:35:55.316Z,26.08
2022-09-04T16:38:24.258Z,26.08
2022-09-04T16:40:48.067Z,26.04
2022-09-04T16:43:14.445Z,25.97
2022-09-04T16:45:40.808Z,25.91
2022-09-04T16:48:34.057Z,25.77
2022-09-04T16:50:33.601Z,25.64
2022-09-04T16:53:13.662Z,25.60
2022-09-04T16:55:26.346Z,25.54
2022-09-04T16:57:52.721Z,25.47
2022-09-04T17:00:19.134Z,25.37
2022-09-04T17:02:45.605Z,25.34
2022-09-04T17:05:11.902Z,25.29
2022-09-04T17:07:38.296Z,25.23
2022-09-04T17:10:04.698Z,25.18
2022-09-04T17:12:31.077Z,25.21
2022-09-04T17:14:57.439Z,25.23
2022-09-04T17:17:31.316Z,25.26
2022-09-04T17:19:50.270Z,25.26
2022-09-04T17:28:56.322Z,25.21
2022-09-04T17:29:02.553Z,25.12
2022-09-04T17:29:14.872Z,24.99
2022-09-04T17:29:39.509Z,24.90
2022-09-04T17:32:25.565Z,24.81
2022-09-04T17:40:33.033Z,24.75
2022-09-04T17:40:50.559Z,24.74
2022-09-04T17:40:55.961Z,24.72
2022-09-04T17:41:59.239Z,24.61
2022-09-04T17:44:14.236Z,24.51
2022-09-04T17:46:40.678Z,24.48
2022-09-04T17:49:06.983Z,24.50
2022-09-04T17:51:33.411Z,24.45
2022-09-04T17:53:59.771Z,24.36
2022-09-04T17:56:26.277Z,24.23
2022-09-04T17:58:52.631Z,24.10
2022-09-04T18:01:19.050Z,23.98
2022-09-04T18:03:46.005Z,23.94
2022-09-04T18:06:11.903Z,23.94
2022-09-04T18:08:38.269Z,23.94
2022-09-04T18:11:04.681Z,23.90
2022-09-04T18:13:37.967Z,23.89
2022-09-04T18:15:57.463Z,23.93
2022-09-04T18:18:25.166Z,23.94
2022-09-04T18:20:51.587Z,23.91
2022-09-04T18:23:16.604Z,23.93
2022-09-04T18:25:42.980Z,23.91
2022-09-04T18:28:12.236Z,23.84
2022-09-04T18:36:52.689Z,23.84
2022-09-04T18:37:12.024Z,23.89
2022-09-04T18:37:17.998Z,23.95
2022-09-04T18:37:55.122Z,23.95
2022-09-04T18:40:43.106Z,23.93
2022-09-04T18:50:22.703Z,23.87
2022-09-04T18:50:38.911Z,23.85
2022-09-04T18:50:50.533Z,23.81
2022-09-04T18:50:53.242Z,23.84
2022-09-04T18:52:33.495Z,23.78
2022-09-04T18:54:59.752Z,23.74
2022-09-04T18:57:26.464Z,23.70
2022-09-04T18:59:58.386Z,23.68
2022-09-04T19:02:19.281Z,23.69
2022-09-04T19:04:45.620Z,23.67
2022-09-04T19:07:12.007Z,23.61
2022-09-04T19:09:44.451Z,23.53
2022-09-04T19:12:04.750Z,23.44
2022-09-04T19:14:31.148Z,23.42
2022-09-04T19:16:57.548Z,23.43
2022-09-04T19:19:25.556Z,23.48
2022-09-04T19:21:57.643Z,23.48
2022-09-04T19:24:16.841Z,23.45
2022-09-04T19:26:43.198Z,23.42
2022-09-04T19:29:09.584Z,23.43
2022-09-04T19:31:35.997Z,23.43
2022-09-04T19:34:02.328Z,23.42
2022-09-04T19:36:30.900Z,23.40
2022-09-04T19:46:02.898Z,23.35
2022-09-04T19:46:05.611Z,23.25
2022-09-04T19:46:14.471Z,23.21
2022-09-04T19:46:33.354Z,23.23
2022-09-04T19:49:06.397Z,23.27
2022-09-04T19:53:24.321Z,23.29
2022-09-04T19:53:42.433Z,23.31
2022-09-04T19:56:00.099Z,23.33
2022-09-04T19:58:26.497Z,23.36
2022-09-04T20:00:52.921Z,23.36
2022-09-04T20:03:29.524Z,23.35
2022-09-04T20:05:45.623Z,23.33
2022-09-04T20:08:11.997Z,23.33
2022-09-04T20:10:38.453Z,23.34
2022-09-04T20:13:04.826Z,23.33
2022-09-04T20:15:31.893Z,23.27
2022-09-04T20:17:57.609Z,23.21
2022-09-04T20:20:23.973Z,23.16
2022-09-04T20:22:50.426Z,23.13
2022-09-04T20:25:16.852Z,23.12
2022-09-04T20:27:43.212Z,23.13
2022-09-04T20:30:09.618Z,23.15
2022-09-04T20:32:36.025Z,23.14
2022-09-04T20:35:14.028Z,23.10
2022-09-04T20:37:28.790Z,23.06
2022-09-04T20:39:55.240Z,23.04
2022-09-04T20:42:21.557Z,23.03
2022-09-04T20:47:23.047Z,22.99
2022-09-04T20:49:40.685Z,22.98
2022-09-04T20:52:44.971Z,22.97
2022-09-04T20:52:58.850Z,22.98
2022-09-04T20:54:33.501Z,23.02
2022-09-04T20:59:47.088Z,23.05
2022-09-04T21:03:14.935Z,23.05
2022-09-04T21:03:23.853Z,23.03
2022-09-04T21:04:31.406Z,23.02
2022-09-04T21:06:45.391Z,22.99
2022-09-04T21:09:11.754Z,22.97
2022-09-04T21:11:41.657Z,22.94
2022-09-04T21:14:04.534Z,22.90
2022-09-04T21:16:30.924Z,22.85
2022-09-04T21:19:28.033Z,22.83
2022-09-04T21:21:23.640Z,22.77
2022-09-04T21:24:03.822Z,22.72
2022-09-04T21:26:16.544Z,22.67
2022-09-04T21:28:42.942Z,22.64
2022-09-04T21:31:09.461Z,22.65
2022-09-04T21:33:36.882Z,22.66
2022-09-04T21:36:25.265Z,22.66
2022-09-04T21:38:28.530Z,22.68
2022-09-04T21:40:54.995Z,22.69
2022-09-04T21:43:21.368Z,22.69
2022-09-04T21:45:47.684Z,22.69
2022-09-04T21:48:18.281Z,22.69
2022-09-04T21:50:40.512Z,22.69
2022-09-04T21:53:06.872Z,22.70
2022-09-04T21:57:20.806Z,22.68
2022-09-04T22:02:31.711Z,22.66
2022-09-04T22:02:45.495Z,22.66
2022-09-04T22:02:59.382Z,22.65
2022-09-04T22:05:18.933Z,22.64
2022-09-04T22:10:21.632Z,22.61
2022-09-04T22:13:35.444Z,22.60
2022-09-04T22:13:39.708Z,22.59
2022-09-04T22:15:04.596Z,22.56
2022-09-04T22:17:30.951Z,22.53
2022-09-04T22:19:57.360Z,22.52
2022-09-04T22:22:23.738Z,22.51
2022-09-04T22:24:50.223Z,22.48
2022-09-04T22:27:16.658Z,22.42
2022-09-04T22:29:43.019Z,22.37
2022-09-04T22:32:09.980Z,22.38
2022-09-04T22:34:35.801Z,22.39
2022-09-04T22:37:02.287Z,22.40
2022-09-04T22:39:31.724Z,22.42
2022-09-04T22:41:55.046Z,22.36
2022-09-04T22:44:21.434Z,22.33
2022-09-04T22:46:47.970Z,22.32
2022-09-04T22:49:14.342Z,22.29
2022-09-04T22:51:40.699Z,22.30
2022-09-04T22:54:07.083Z,22.30
2022-09-04T22:56:33.483Z,22.30
2022-09-04T22:59:22.554Z,22.27
2022-09-04T23:01:26.347Z,22.23
2022-09-04T23:03:52.747Z,22.12
2022-09-04T23:08:13.559Z,22.02
2022-09-04T23:13:46.380Z,21.93
2022-09-04T23:13:48.099Z,21.94
2022-09-04T23:13:58.275Z,21.91
2022-09-04T23:16:04.795Z,21.88
2022-09-04T23:24:56.536Z,21.87
2022-09-04T23:26:36.924Z,21.86
2022-09-04T23:26:53.271Z,21.77
2022-09-04T23:26:53.817Z,21.82
2022-09-04T23:28:28.070Z,21.76
2022-09-04T23:30:43.237Z,21.77
2022-09-04T23:33:09.625Z,21.72
2022-09-04T23:35:36.020Z,21.68
2022-09-04T23:38:02.384Z,21.64
2022-09-04T23:40:28.745Z,21.67
2022-09-04T23:42:55.133Z,21.67
2022-09-04T23:45:21.513Z,21.73
2022-09-04T23:47:49.456Z,21.74
2022-09-04T23:50:14.275Z,21.74
2022-09-04T23:52:46.271Z,21.74
2022-09-04T23:55:07.062Z,21.74
2022-09-04T23:57:33.554Z,21.78
2022-09-04T23:59:59.937Z,21.72
